Axel, Colorado
Current Conditions -  °F | °C
As of 9:53 PM on Friday 31 Oct 2014 (Local Time) from KEEO Reporting Station
Clear Clear  
Wind Chill: 45°   Ceiling: Unl
Heat Index: 48°   Visibility: 10mi
Dew Point: 28°   Wind: 6mph
Humidity: 46%   Direction: 70°ENE
Pressure: 30.08"   Gusts: NA
Location:  40.0347°N, 107.628°W
Report Text: KEEO 010353Z AUTO 07005KT 10SM CLR 09/M02 A3008 RMK AO2 SLP148 T00891022
Loading
Personal Weather Stations






























Interactive Weather Map
Tropical Storm Tracking
New forecast layout! Learn more

10-Day Weather Forecast

Advertisements
Track Severe Weather on mobile